sensor_id;sensor_type;location;lat;lon;timestamp;P1;durP1;ratioP1;P2;durP2;ratioP2
47273;SDS011;33007;49.082;19.306;2022-11-09T00:01:24;21.90;;;15.32;;
47273;SDS011;33007;49.082;19.306;2022-11-09T00:03:55;24.83;;;16.30;;
47273;SDS011;33007;49.082;19.306;2022-11-09T08:35:27;35.17;;;22.48;;
47273;SDS011;33007;49.082;19.306;2022-11-09T08:37:53;37.88;;;22.38;;
47273;SDS011;33007;49.082;19.306;2022-11-09T08:40:20;33.10;;;22.38;;
47273;SDS011;33007;49.082;19.306;2022-11-09T08:42:47;33.42;;;21.13;;
47273;SDS011;33007;49.082;19.306;2022-11-09T08:45:13;32.45;;;20.27;;
47273;SDS011;33007;49.082;19.306;2022-11-09T08:47:40;35.78;;;20.90;;
47273;SDS011;33007;49.082;19.306;2022-11-09T08:50:06;33.25;;;20.67;;
47273;SDS011;33007;49.082;19.306;2022-11-09T08:52:32;28.33;;;19.95;;
47273;SDS011;33007;49.082;19.306;2022-11-09T08:54:58;31.67;;;19.25;;
47273;SDS011;33007;49.082;19.306;2022-11-09T08:57:24;33.97;;;19.88;;
47273;SDS011;33007;49.082;19.306;2022-11-09T08:59:50;34.35;;;19.30;;
47273;SDS011;33007;49.082;19.306;2022-11-09T09:02:15;29.38;;;19.02;;
47273;SDS011;33007;49.082;19.306;2022-11-09T09:04:41;28.58;;;17.48;;
47273;SDS011;33007;49.082;19.306;2022-11-09T09:07:08;25.63;;;15.90;;
47273;SDS011;33007;49.082;19.306;2022-11-09T09:09:33;27.33;;;16.80;;
47273;SDS011;33007;49.082;19.306;2022-11-09T09:11:59;31.85;;;19.25;;
47273;SDS011;33007;49.082;19.306;2022-11-09T09:14:25;36.75;;;19.85;;
47273;SDS011;33007;49.082;19.306;2022-11-09T09:16:51;37.65;;;19.63;;
47273;SDS011;33007;49.082;19.306;2022-11-09T09:19:17;31.95;;;17.90;;
47273;SDS011;33007;49.082;19.306;2022-11-09T09:21:42;30.45;;;17.30;;
47273;SDS011;33007;49.082;19.306;2022-11-09T09:24:08;33.38;;;17.05;;
47273;SDS011;33007;49.082;19.306;2022-11-09T09:26:33;25.77;;;16.83;;
47273;SDS011;33007;49.082;19.306;2022-11-09T09:28:59;32.38;;;17.60;;
47273;SDS011;33007;49.082;19.306;2022-11-09T09:31:25;30.38;;;16.77;;
47273;SDS011;33007;49.082;19.306;2022-11-09T09:33:50;29.63;;;16.25;;
47273;SDS011;33007;49.082;19.306;2022-11-09T09:36:17;29.23;;;15.48;;
47273;SDS011;33007;49.082;19.306;2022-11-09T09:38:50;28.30;;;15.60;;
47273;SDS011;33007;49.082;19.306;2022-11-09T09:41:17;26.85;;;15.00;;
47273;SDS011;33007;49.082;19.306;2022-11-09T09:43:48;24.90;;;15.70;;
47273;SDS011;33007;49.082;19.306;2022-11-09T09:46:23;30.85;;;15.18;;
47273;SDS011;33007;49.082;19.306;2022-11-09T09:51:25;30.33;;;16.17;;
47273;SDS011;33007;49.082;19.306;2022-11-09T09:54:11;29.60;;;16.83;;
47273;SDS011;33007;49.082;19.306;2022-11-09T09:56:44;26.98;;;15.15;;
47273;SDS011;33007;49.082;19.306;2022-11-09T09:59:18;52.05;;;16.65;;
47273;SDS011;33007;49.082;19.306;2022-11-09T10:01:58;24.92;;;13.73;;
47273;SDS011;33007;49.082;19.306;2022-11-09T10:15:39;22.23;;;12.80;;
47273;SDS011;33007;49.082;19.306;2022-11-09T10:26:17;19.00;;;12.57;;
47273;SDS011;33007;49.082;19.306;2022-11-09T10:28:44;18.50;;;12.48;;
47273;SDS011;33007;49.082;19.306;2022-11-09T10:31:14;21.60;;;13.05;;
47273;SDS011;33007;49.082;19.306;2022-11-09T10:36:18;21.63;;;12.35;;
47273;SDS011;33007;49.082;19.306;2022-11-09T10:38:48;21.15;;;12.38;;
47273;SDS011;33007;49.082;19.306;2022-11-09T10:43:50;19.27;;;11.93;;
47273;SDS011;33007;49.082;19.306;2022-11-09T10:46:15;16.80;;;11.98;;
47273;SDS011;33007;49.082;19.306;2022-11-09T10:48:41;18.00;;;12.13;;
47273;SDS011;33007;49.082;19.306;2022-11-09T10:51:29;20.75;;;12.98;;
47273;SDS011;33007;49.082;19.306;2022-11-09T10:54:14;22.70;;;12.73;;
47273;SDS011;33007;49.082;19.306;2022-11-09T10:56:48;21.60;;;12.63;;
47273;SDS011;33007;49.082;19.306;2022-11-09T11:02:35;23.00;;;12.70;;
47273;SDS011;33007;49.082;19.306;2022-11-09T11:07:29;20.35;;;14.20;;
47273;SDS011;33007;49.082;19.306;2022-11-09T11:09:55;21.67;;;14.15;;
47273;SDS011;33007;49.082;19.306;2022-11-09T11:12:32;19.02;;;13.95;;
47273;SDS011;33007;49.082;19.306;2022-11-09T11:14:58;20.90;;;14.27;;
47273;SDS011;33007;49.082;19.306;2022-11-09T11:19:51;21.52;;;13.95;;
47273;SDS011;33007;49.082;19.306;2022-11-09T11:22:18;20.48;;;13.75;;
47273;SDS011;33007;49.082;19.306;2022-11-09T11:24:55;22.95;;;14.93;;
47273;SDS011;33007;49.082;19.306;2022-11-09T11:30:32;19.73;;;13.38;;
47273;SDS011;33007;49.082;19.306;2022-11-09T11:33:13;21.42;;;15.63;;
47273;SDS011;33007;49.082;19.306;2022-11-09T11:36:03;21.35;;;14.63;;
47273;SDS011;33007;49.082;19.306;2022-11-09T11:38:40;28.58;;;18.52;;
47273;SDS011;33007;49.082;19.306;2022-11-09T11:47:08;27.77;;;17.95;;
47273;SDS011;33007;49.082;19.306;2022-11-09T11:50:00;25.52;;;17.08;;
47273;SDS011;33007;49.082;19.306;2022-11-09T12:04:11;58.40;;;18.65;;
47273;SDS011;33007;49.082;19.306;2022-11-09T12:07:10;34.30;;;18.40;;
47273;SDS011;33007;49.082;19.306;2022-11-09T12:13:05;26.42;;;16.35;;
47273;SDS011;33007;49.082;19.306;2022-11-09T12:15:41;30.20;;;16.05;;
47273;SDS011;33007;49.082;19.306;2022-11-09T12:35:42;23.67;;;15.90;;
47273;SDS011;33007;49.082;19.306;2022-11-09T12:38:42;29.17;;;19.25;;
47273;SDS011;33007;49.082;19.306;2022-11-09T12:41:19;18.93;;;13.57;;
47273;SDS011;33007;49.082;19.306;2022-11-09T12:43:52;26.33;;;15.00;;
47273;SDS011;33007;49.082;19.306;2022-11-09T12:46:23;24.02;;;14.73;;
47273;SDS011;33007;49.082;19.306;2022-11-09T12:48:55;29.80;;;14.30;;
47273;SDS011;33007;49.082;19.306;2022-11-09T12:53:52;23.30;;;13.98;;
47273;SDS011;33007;49.082;19.306;2022-11-09T12:56:33;85.00;;;17.80;;
47273;SDS011;33007;49.082;19.306;2022-11-09T13:02:18;23.73;;;14.15;;
47273;SDS011;33007;49.082;19.306;2022-11-09T13:04:59;23.58;;;15.35;;
47273;SDS011;33007;49.082;19.306;2022-11-09T13:07:45;22.45;;;13.73;;
47273;SDS011;33007;49.082;19.306;2022-11-09T13:10:25;20.50;;;12.98;;
47273;SDS011;33007;49.082;19.306;2022-11-09T13:21:29;21.13;;;12.88;;
47273;SDS011;33007;49.082;19.306;2022-11-09T13:23:52;20.90;;;14.05;;
47273;SDS011;33007;49.082;19.306;2022-11-09T13:32:00;19.00;;;13.40;;
47273;SDS011;33007;49.082;19.306;2022-11-09T13:34:39;42.70;;;14.45;;
47273;SDS011;33007;49.082;19.306;2022-11-09T13:48:40;20.10;;;13.30;;
47273;SDS011;33007;49.082;19.306;2022-11-09T13:51:14;17.20;;;12.93;;
47273;SDS011;33007;49.082;19.306;2022-11-09T13:53:53;46.60;;;14.05;;
47273;SDS011;33007;49.082;19.306;2022-11-09T14:01:32;20.13;;;13.38;;
47273;SDS011;33007;49.082;19.306;2022-11-09T14:03:59;21.25;;;13.85;;
47273;SDS011;33007;49.082;19.306;2022-11-09T14:06:28;18.85;;;13.45;;
47273;SDS011;33007;49.082;19.306;2022-11-09T14:08:56;20.30;;;14.10;;
47273;SDS011;33007;49.082;19.306;2022-11-09T14:22:41;23.08;;;13.70;;
47273;SDS011;33007;49.082;19.306;2022-11-09T14:25:18;20.30;;;13.70;;
47273;SDS011;33007;49.082;19.306;2022-11-09T14:27:51;23.23;;;14.98;;
47273;SDS011;33007;49.082;19.306;2022-11-09T14:30:27;110.40;;;20.13;;
47273;SDS011;33007;49.082;19.306;2022-11-09T14:32:55;22.85;;;15.02;;
47273;SDS011;33007;49.082;19.306;2022-11-09T14:35:22;23.27;;;15.52;;
47273;SDS011;33007;49.082;19.306;2022-11-09T14:37:54;22.10;;;15.07;;
47273;SDS011;33007;49.082;19.306;2022-11-09T14:40:26;23.15;;;15.75;;
47273;SDS011;33007;49.082;19.306;2022-11-09T14:42:57;22.88;;;14.43;;
47273;SDS011;33007;49.082;19.306;2022-11-09T14:45:25;21.58;;;15.00;;
47273;SDS011;33007;49.082;19.306;2022-11-09T14:47:56;25.88;;;15.50;;
47273;SDS011;33007;49.082;19.306;2022-11-09T14:50:24;21.73;;;14.38;;
47273;SDS011;33007;49.082;19.306;2022-11-09T14:52:55;24.85;;;15.10;;
47273;SDS011;33007;49.082;19.306;2022-11-09T14:55:23;22.13;;;14.63;;
47273;SDS011;33007;49.082;19.306;2022-11-09T14:57:50;26.05;;;15.60;;
47273;SDS011;33007;49.082;19.306;2022-11-09T15:02:48;25.17;;;16.55;;
47273;SDS011;33007;49.082;19.306;2022-11-09T15:05:30;23.27;;;15.43;;
47273;SDS011;33007;49.082;19.306;2022-11-09T15:07:59;24.98;;;16.52;;
47273;SDS011;33007;49.082;19.306;2022-11-09T15:10:25;27.48;;;16.95;;
47273;SDS011;33007;49.082;19.306;2022-11-09T15:12:55;27.02;;;17.02;;
47273;SDS011;33007;49.082;19.306;2022-11-09T15:15:24;26.40;;;17.85;;
47273;SDS011;33007;49.082;19.306;2022-11-09T15:17:52;24.58;;;16.67;;
47273;SDS011;33007;49.082;19.306;2022-11-09T15:28:15;28.17;;;19.33;;
47273;SDS011;33007;49.082;19.306;2022-11-09T15:30:48;28.95;;;18.80;;
47273;SDS011;33007;49.082;19.306;2022-11-09T15:43:43;29.25;;;18.75;;
47273;SDS011;33007;49.082;19.306;2022-11-09T15:46:12;28.60;;;19.33;;
47273;SDS011;33007;49.082;19.306;2022-11-09T15:48:39;31.55;;;19.27;;
47273;SDS011;33007;49.082;19.306;2022-11-09T15:51:05;27.90;;;17.35;;
47273;SDS011;33007;49.082;19.306;2022-11-09T15:53:31;33.50;;;20.58;;
47273;SDS011;33007;49.082;19.306;2022-11-09T15:55:58;33.42;;;21.48;;
47273;SDS011;33007;49.082;19.306;2022-11-09T15:58:23;31.88;;;20.00;;
47273;SDS011;33007;49.082;19.306;2022-11-09T16:00:49;30.35;;;20.58;;
47273;SDS011;33007;49.082;19.306;2022-11-09T16:03:14;33.70;;;22.65;;
47273;SDS011;33007;49.082;19.306;2022-11-09T16:05:42;39.10;;;24.67;;
47273;SDS011;33007;49.082;19.306;2022-11-09T16:08:08;460.75;;;49.67;;
47273;SDS011;33007;49.082;19.306;2022-11-09T16:10:34;35.72;;;23.48;;
47273;SDS011;33007;49.082;19.306;2022-11-09T16:13:04;37.67;;;24.15;;
47273;SDS011;33007;49.082;19.306;2022-11-09T16:15:31;36.92;;;24.05;;
47273;SDS011;33007;49.082;19.306;2022-11-09T16:18:00;42.13;;;27.58;;
47273;SDS011;33007;49.082;19.306;2022-11-09T16:20:26;40.58;;;26.88;;
47273;SDS011;33007;49.082;19.306;2022-11-09T16:22:52;41.03;;;25.88;;
47273;SDS011;33007;49.082;19.306;2022-11-09T16:25:17;40.05;;;26.05;;
47273;SDS011;33007;49.082;19.306;2022-11-09T16:27:43;40.22;;;24.45;;
47273;SDS011;33007;49.082;19.306;2022-11-09T16:30:09;33.95;;;22.23;;
47273;SDS011;33007;49.082;19.306;2022-11-09T16:32:35;32.92;;;23.05;;
47273;SDS011;33007;49.082;19.306;2022-11-09T16:35:01;34.50;;;22.27;;
47273;SDS011;33007;49.082;19.306;2022-11-09T16:37:28;32.75;;;21.55;;
47273;SDS011;33007;49.082;19.306;2022-11-09T16:39:59;37.17;;;22.23;;
47273;SDS011;33007;49.082;19.306;2022-11-09T16:42:29;37.67;;;23.00;;
47273;SDS011;33007;49.082;19.306;2022-11-09T16:44:57;32.50;;;21.98;;
47273;SDS011;33007;49.082;19.306;2022-11-09T16:47:28;33.55;;;21.38;;
47273;SDS011;33007;49.082;19.306;2022-11-09T16:49:54;33.78;;;21.73;;
47273;SDS011;33007;49.082;19.306;2022-11-09T16:52:20;33.63;;;21.10;;
47273;SDS011;33007;49.082;19.306;2022-11-09T16:54:46;32.08;;;22.25;;
47273;SDS011;33007;49.082;19.306;2022-11-09T16:57:11;31.10;;;21.27;;
47273;SDS011;33007;49.082;19.306;2022-11-09T16:59:37;32.97;;;22.02;;
47273;SDS011;33007;49.082;19.306;2022-11-09T17:02:03;34.67;;;22.40;;
47273;SDS011;33007;49.082;19.306;2022-11-09T17:04:29;34.08;;;22.50;;
47273;SDS011;33007;49.082;19.306;2022-11-09T17:06:54;32.45;;;21.73;;
47273;SDS011;33007;49.082;19.306;2022-11-09T17:09:20;33.00;;;21.83;;
47273;SDS011;33007;49.082;19.306;2022-11-09T17:11:45;34.20;;;21.88;;
47273;SDS011;33007;49.082;19.306;2022-11-09T17:14:11;36.15;;;23.60;;
47273;SDS011;33007;49.082;19.306;2022-11-09T17:16:36;231.63;;;32.28;;
47273;SDS011;33007;49.082;19.306;2022-11-09T17:19:02;37.00;;;23.75;;
47273;SDS011;33007;49.082;19.306;2022-11-09T17:21:30;35.80;;;24.35;;
47273;SDS011;33007;49.082;19.306;2022-11-09T17:23:56;38.28;;;25.50;;
47273;SDS011;33007;49.082;19.306;2022-11-09T17:26:22;35.20;;;23.27;;
47273;SDS011;33007;49.082;19.306;2022-11-09T17:28:48;38.63;;;24.45;;
47273;SDS011;33007;49.082;19.306;2022-11-09T17:31:15;44.63;;;27.83;;
47273;SDS011;33007;49.082;19.306;2022-11-09T17:33:41;55.13;;;32.63;;
47273;SDS011;33007;49.082;19.306;2022-11-09T17:36:09;49.15;;;30.10;;
47273;SDS011;33007;49.082;19.306;2022-11-09T17:38:35;54.33;;;32.30;;
47273;SDS011;33007;49.082;19.306;2022-11-09T17:41:12;53.33;;;34.05;;
47273;SDS011;33007;49.082;19.306;2022-11-09T17:43:40;57.40;;;33.85;;
47273;SDS011;33007;49.082;19.306;2022-11-09T17:46:08;50.72;;;33.28;;
47273;SDS011;33007;49.082;19.306;2022-11-09T17:48:39;54.35;;;33.22;;
47273;SDS011;33007;49.082;19.306;2022-11-09T17:51:06;60.20;;;34.20;;
47273;SDS011;33007;49.082;19.306;2022-11-09T17:53:33;49.85;;;32.85;;
47273;SDS011;33007;49.082;19.306;2022-11-09T17:55:59;47.50;;;31.48;;
47273;SDS011;33007;49.082;19.306;2022-11-09T17:58:25;99.43;;;33.85;;
47273;SDS011;33007;49.082;19.306;2022-11-09T18:00:51;55.60;;;32.35;;
47273;SDS011;33007;49.082;19.306;2022-11-09T18:03:17;61.70;;;37.28;;
47273;SDS011;33007;49.082;19.306;2022-11-09T18:05:43;59.17;;;38.35;;
47273;SDS011;33007;49.082;19.306;2022-11-09T18:08:09;60.63;;;36.67;;
47273;SDS011;33007;49.082;19.306;2022-11-09T18:10:37;58.17;;;37.20;;
47273;SDS011;33007;49.082;19.306;2022-11-09T18:13:04;57.85;;;37.67;;
47273;SDS011;33007;49.082;19.306;2022-11-09T18:15:30;54.97;;;36.63;;
47273;SDS011;33007;49.082;19.306;2022-11-09T18:17:56;58.53;;;35.85;;
47273;SDS011;33007;49.082;19.306;2022-11-09T18:20:22;65.90;;;39.47;;
47273;SDS011;33007;49.082;19.306;2022-11-09T18:22:52;58.25;;;37.85;;
47273;SDS011;33007;49.082;19.306;2022-11-09T18:25:18;62.05;;;37.28;;
47273;SDS011;33007;49.082;19.306;2022-11-09T18:27:55;69.03;;;41.40;;
47273;SDS011;33007;49.082;19.306;2022-11-09T18:30:21;57.53;;;37.50;;
47273;SDS011;33007;49.082;19.306;2022-11-09T18:32:47;61.08;;;37.97;;
47273;SDS011;33007;49.082;19.306;2022-11-09T18:35:13;63.67;;;36.85;;
47273;SDS011;33007;49.082;19.306;2022-11-09T18:37:38;57.30;;;35.65;;
47273;SDS011;33007;49.082;19.306;2022-11-09T18:40:05;56.08;;;34.45;;
47273;SDS011;33007;49.082;19.306;2022-11-09T18:42:31;47.15;;;30.63;;
47273;SDS011;33007;49.082;19.306;2022-11-09T18:44:57;47.22;;;29.10;;
47273;SDS011;33007;49.082;19.306;2022-11-09T18:47:23;44.03;;;28.05;;
47273;SDS011;33007;49.082;19.306;2022-11-09T18:49:49;39.80;;;26.85;;
47273;SDS011;33007;49.082;19.306;2022-11-09T18:52:16;39.78;;;26.10;;
47273;SDS011;33007;49.082;19.306;2022-11-09T18:54:42;37.17;;;25.00;;
47273;SDS011;33007;49.082;19.306;2022-11-09T18:57:07;34.75;;;22.58;;
47273;SDS011;33007;49.082;19.306;2022-11-09T18:59:33;35.72;;;23.80;;
47273;SDS011;33007;49.082;19.306;2022-11-09T19:02:01;37.60;;;24.17;;
47273;SDS011;33007;49.082;19.306;2022-11-09T19:04:27;36.70;;;23.00;;
47273;SDS011;33007;49.082;19.306;2022-11-09T19:06:52;35.05;;;22.45;;
47273;SDS011;33007;49.082;19.306;2022-11-09T19:09:19;33.10;;;22.58;;
47273;SDS011;33007;49.082;19.306;2022-11-09T19:11:59;31.75;;;21.25;;
47273;SDS011;33007;49.082;19.306;2022-11-09T19:14:28;33.53;;;21.23;;
47273;SDS011;33007;49.082;19.306;2022-11-09T19:16:54;31.85;;;21.30;;
47273;SDS011;33007;49.082;19.306;2022-11-09T19:19:20;31.67;;;21.55;;
47273;SDS011;33007;49.082;19.306;2022-11-09T19:21:47;29.58;;;20.92;;
47273;SDS011;33007;49.082;19.306;2022-11-09T19:24:15;27.77;;;20.15;;
47273;SDS011;33007;49.082;19.306;2022-11-09T19:26:43;32.92;;;22.33;;
47273;SDS011;33007;49.082;19.306;2022-11-09T19:29:12;34.83;;;21.45;;
47273;SDS011;33007;49.082;19.306;2022-11-09T19:31:38;38.63;;;23.77;;
47273;SDS011;33007;49.082;19.306;2022-11-09T19:34:11;36.10;;;22.15;;
47273;SDS011;33007;49.082;19.306;2022-11-09T19:39:05;36.38;;;21.30;;
47273;SDS011;33007;49.082;19.306;2022-11-09T19:41:31;33.60;;;21.65;;
47273;SDS011;33007;49.082;19.306;2022-11-09T19:43:57;36.20;;;21.77;;
47273;SDS011;33007;49.082;19.306;2022-11-09T19:46:26;40.20;;;23.83;;
47273;SDS011;33007;49.082;19.306;2022-11-09T19:48:55;38.58;;;23.40;;
47273;SDS011;33007;49.082;19.306;2022-11-09T19:51:21;39.63;;;24.15;;
47273;SDS011;33007;49.082;19.306;2022-11-09T19:53:50;36.72;;;24.95;;
47273;SDS011;33007;49.082;19.306;2022-11-09T19:56:18;38.83;;;24.98;;
47273;SDS011;33007;49.082;19.306;2022-11-09T19:58:48;44.60;;;26.20;;
47273;SDS011;33007;49.082;19.306;2022-11-09T20:01:15;38.97;;;26.10;;
47273;SDS011;33007;49.082;19.306;2022-11-09T20:03:41;39.63;;;25.50;;
47273;SDS011;33007;49.082;19.306;2022-11-09T20:06:06;37.65;;;25.13;;
47273;SDS011;33007;49.082;19.306;2022-11-09T20:08:35;44.08;;;27.58;;
47273;SDS011;33007;49.082;19.306;2022-11-09T20:11:05;44.45;;;28.35;;
47273;SDS011;33007;49.082;19.306;2022-11-09T20:13:33;46.78;;;30.00;;
47273;SDS011;33007;49.082;19.306;2022-11-09T20:16:02;51.70;;;29.83;;
47273;SDS011;33007;49.082;19.306;2022-11-09T20:18:29;50.40;;;32.47;;
47273;SDS011;33007;49.082;19.306;2022-11-09T20:20:55;57.33;;;33.63;;
47273;SDS011;33007;49.082;19.306;2022-11-09T20:23:21;59.28;;;37.92;;
47273;SDS011;33007;49.082;19.306;2022-11-09T20:25:46;69.97;;;39.55;;
47273;SDS011;33007;49.082;19.306;2022-11-09T20:28:11;65.20;;;37.90;;
47273;SDS011;33007;49.082;19.306;2022-11-09T20:30:38;72.55;;;38.88;;
47273;SDS011;33007;49.082;19.306;2022-11-09T20:33:04;59.30;;;37.10;;
47273;SDS011;33007;49.082;19.306;2022-11-09T20:35:30;72.15;;;39.28;;
47273;SDS011;33007;49.082;19.306;2022-11-09T20:37:55;76.20;;;38.65;;
47273;SDS011;33007;49.082;19.306;2022-11-09T20:40:21;106.43;;;38.85;;
47273;SDS011;33007;49.082;19.306;2022-11-09T20:42:46;65.65;;;38.90;;
47273;SDS011;33007;49.082;19.306;2022-11-09T20:45:12;67.88;;;37.90;;
47273;SDS011;33007;49.082;19.306;2022-11-09T20:47:39;64.25;;;38.22;;
47273;SDS011;33007;49.082;19.306;2022-11-09T20:50:04;67.28;;;38.45;;
47273;SDS011;33007;49.082;19.306;2022-11-09T20:52:30;66.43;;;39.05;;
47273;SDS011;33007;49.082;19.306;2022-11-09T20:54:55;59.45;;;36.65;;
47273;SDS011;33007;49.082;19.306;2022-11-09T20:57:21;106.32;;;42.50;;
47273;SDS011;33007;49.082;19.306;2022-11-09T20:59:46;67.55;;;39.88;;
47273;SDS011;33007;49.082;19.306;2022-11-09T21:02:12;70.05;;;42.15;;
47273;SDS011;33007;49.082;19.306;2022-11-09T21:04:39;63.88;;;39.25;;
47273;SDS011;33007;49.082;19.306;2022-11-09T21:07:05;64.35;;;38.35;;
47273;SDS011;33007;49.082;19.306;2022-11-09T21:09:30;62.00;;;39.00;;
47273;SDS011;33007;49.082;19.306;2022-11-09T21:11:56;64.38;;;40.47;;
47273;SDS011;33007;49.082;19.306;2022-11-09T21:14:40;62.92;;;39.30;;
47273;SDS011;33007;49.082;19.306;2022-11-09T21:17:05;64.93;;;38.65;;
47273;SDS011;33007;49.082;19.306;2022-11-09T21:19:31;66.97;;;40.15;;
47273;SDS011;33007;49.082;19.306;2022-11-09T21:21:56;64.57;;;39.80;;
47273;SDS011;33007;49.082;19.306;2022-11-09T21:24:22;69.50;;;41.75;;
47273;SDS011;33007;49.082;19.306;2022-11-09T21:27:08;60.88;;;36.40;;
47273;SDS011;33007;49.082;19.306;2022-11-09T21:30:09;69.65;;;39.78;;
47273;SDS011;33007;49.082;19.306;2022-11-09T21:32:35;63.03;;;38.58;;
47273;SDS011;33007;49.082;19.306;2022-11-09T21:35:01;64.95;;;38.95;;
47273;SDS011;33007;49.082;19.306;2022-11-09T21:37:27;56.90;;;34.90;;
47273;SDS011;33007;49.082;19.306;2022-11-09T21:39:53;52.58;;;33.50;;
47273;SDS011;33007;49.082;19.306;2022-11-09T21:42:18;59.25;;;34.95;;
47273;SDS011;33007;49.082;19.306;2022-11-09T21:48:05;52.80;;;32.83;;
47273;SDS011;33007;49.082;19.306;2022-11-09T21:50:32;51.88;;;31.35;;
47273;SDS011;33007;49.082;19.306;2022-11-09T21:52:58;57.13;;;32.47;;
47273;SDS011;33007;49.082;19.306;2022-11-09T21:55:24;49.30;;;29.98;;
47273;SDS011;33007;49.082;19.306;2022-11-09T21:57:49;45.97;;;31.25;;
47273;SDS011;33007;49.082;19.306;2022-11-09T22:00:15;57.03;;;30.95;;
47273;SDS011;33007;49.082;19.306;2022-11-09T22:02:41;47.03;;;30.25;;
47273;SDS011;33007;49.082;19.306;2022-11-09T22:05:06;50.05;;;31.08;;
47273;SDS011;33007;49.082;19.306;2022-11-09T22:07:32;55.90;;;33.35;;
47273;SDS011;33007;49.082;19.306;2022-11-09T22:09:58;53.10;;;29.52;;
47273;SDS011;33007;49.082;19.306;2022-11-09T22:12:23;57.22;;;31.27;;
47273;SDS011;33007;49.082;19.306;2022-11-09T22:15:13;51.65;;;29.45;;
47273;SDS011;33007;49.082;19.306;2022-11-09T22:17:57;46.47;;;30.80;;
47273;SDS011;33007;49.082;19.306;2022-11-09T22:20:23;52.00;;;31.30;;
47273;SDS011;33007;49.082;19.306;2022-11-09T22:23:07;48.63;;;29.40;;
47273;SDS011;33007;49.082;19.306;2022-11-09T22:25:33;53.50;;;30.85;;
47273;SDS011;33007;49.082;19.306;2022-11-09T22:27:59;47.78;;;30.40;;
47273;SDS011;33007;49.082;19.306;2022-11-09T22:30:24;53.60;;;29.10;;
47273;SDS011;33007;49.082;19.306;2022-11-09T22:32:50;48.63;;;30.05;;
47273;SDS011;33007;49.082;19.306;2022-11-09T22:35:16;47.40;;;30.60;;
47273;SDS011;33007;49.082;19.306;2022-11-09T22:37:42;47.35;;;29.55;;
47273;SDS011;33007;49.082;19.306;2022-11-09T22:40:07;45.35;;;28.67;;
47273;SDS011;33007;49.082;19.306;2022-11-09T22:42:33;46.78;;;28.50;;
47273;SDS011;33007;49.082;19.306;2022-11-09T22:44:58;51.22;;;29.88;;
47273;SDS011;33007;49.082;19.306;2022-11-09T22:47:24;70.07;;;29.50;;
47273;SDS011;33007;49.082;19.306;2022-11-09T22:49:49;45.08;;;28.20;;
47273;SDS011;33007;49.082;19.306;2022-11-09T22:52:15;41.28;;;26.92;;
47273;SDS011;33007;49.082;19.306;2022-11-09T22:54:42;41.45;;;25.85;;
47273;SDS011;33007;49.082;19.306;2022-11-09T22:57:08;44.15;;;27.15;;
47273;SDS011;33007;49.082;19.306;2022-11-09T22:59:33;51.45;;;27.63;;
47273;SDS011;33007;49.082;19.306;2022-11-09T23:01:59;44.47;;;27.52;;
47273;SDS011;33007;49.082;19.306;2022-11-09T23:04:25;40.65;;;25.67;;
47273;SDS011;33007;49.082;19.306;2022-11-09T23:06:51;45.80;;;27.58;;
47273;SDS011;33007;49.082;19.306;2022-11-09T23:09:17;45.70;;;28.23;;
47273;SDS011;33007;49.082;19.306;2022-11-09T23:11:42;39.55;;;24.90;;
47273;SDS011;33007;49.082;19.306;2022-11-09T23:14:08;46.55;;;28.00;;
47273;SDS011;33007;49.082;19.306;2022-11-09T23:16:35;42.38;;;27.38;;
47273;SDS011;33007;49.082;19.306;2022-11-09T23:19:00;42.45;;;26.80;;
47273;SDS011;33007;49.082;19.306;2022-11-09T23:21:27;39.85;;;25.40;;
47273;SDS011;33007;49.082;19.306;2022-11-09T23:24:03;47.05;;;25.55;;
47273;SDS011;33007;49.082;19.306;2022-11-09T23:26:31;45.72;;;26.77;;
47273;SDS011;33007;49.082;19.306;2022-11-09T23:28:57;44.70;;;27.33;;
47273;SDS011;33007;49.082;19.306;2022-11-09T23:31:23;42.88;;;26.95;;
47273;SDS011;33007;49.082;19.306;2022-11-09T23:33:51;39.08;;;23.67;;
47273;SDS011;33007;49.082;19.306;2022-11-09T23:36:19;41.40;;;26.10;;
47273;SDS011;33007;49.082;19.306;2022-11-09T23:38:48;36.70;;;23.65;;
47273;SDS011;33007;49.082;19.306;2022-11-09T23:41:14;41.78;;;25.25;;
47273;SDS011;33007;49.082;19.306;2022-11-09T23:43:40;40.78;;;23.50;;
47273;SDS011;33007;49.082;19.306;2022-11-09T23:46:10;36.03;;;22.90;;
47273;SDS011;33007;49.082;19.306;2022-11-09T23:51:03;36.67;;;22.27;;
47273;SDS011;33007;49.082;19.306;2022-11-09T23:53:29;34.17;;;20.75;;
47273;SDS011;33007;49.082;19.306;2022-11-09T23:55:59;32.55;;;21.13;;
47273;SDS011;33007;49.082;19.306;2022-11-09T23:58:26;38.83;;;23.17;;
